Time;durP1;ratioP1;P1;durP2;ratioP2;P2;SDS_P1;SDS_P2;PMS_P1;PMS_P2;Temp;Humidity;BMP_temperature;BMP_pressure;BME280_temperature;BME280_humidity;BME280_pressure;Samples;Min_cycle;Max_cycle;Signal;HPM_P1;HPM_P2
2022/10/10 00:01:43;;;;;;;10.30;6.10;;;;;;;12.79;71.72;99351.33;25465;1323;3050498;-69
2022/10/10 00:04:13;;;;;;;14.00;8.40;;;;;;;13.22;69.34;99337.73;25470;1328;3026158;-70
2022/10/10 00:06:41;;;;;;;19.50;9.80;;;;;;;13.27;68.84;99353.67;25468;1327;3025586;-71
2022/10/10 00:09:13;;;;;;;15.70;9.50;;;;;;;13.05;69.72;99337.70;25468;1325;3051338;-71
2022/10/10 00:11:45;;;;;;;15.40;9.70;;;;;;;12.88;69.89;99345.55;25471;1327;3025959;-69
2022/10/10 00:14:16;;;;;;;14.80;9.50;;;;;;;12.75;70.45;99341.59;25471;1321;3026397;-72
2022/10/10 00:16:49;;;;;;;20.80;10.90;;;;;;;12.68;70.50;99348.23;25470;1320;3027078;-71
2022/10/10 00:19:23;;;;;;;19.70;9.60;;;;;;;12.52;71.40;99345.33;25471;1331;3049169;-70
2022/10/10 00:21:52;;;;;;;13.80;8.00;;;;;;;12.42;71.61;99341.08;25463;1323;3027575;-73
2022/10/10 00:24:21;;;;;;;15.90;8.70;;;;;;;12.36;71.98;99369.80;25461;1328;3068610;-67
2022/10/10 00:26:53;;;;;;;12.10;6.00;;;;;;;12.33;72.64;99343.33;25469;1326;3026736;-67
2022/10/10 00:29:22;;;;;;;11.00;6.60;;;;;;;12.79;71.39;99343.05;25463;1320;3026412;-75
2022/10/10 00:31:51;;;;;;;16.80;7.40;;;;;;;13.19;69.72;99349.64;25462;1327;3068417;-71
2022/10/10 00:34:19;;;;;;;12.50;6.70;;;;;;;12.96;69.52;99333.95;25484;1320;3025942;-70
2022/10/10 00:36:49;;;;;;;13.00;7.20;;;;;;;12.73;70.38;99346.49;25484;1316;3049574;-70
2022/10/10 00:39:18;;;;;;;14.90;7.40;;;;;;;12.44;71.29;99336.61;25473;1324;3025760;-70
2022/10/10 00:41:47;;;;;;;11.10;8.00;;;;;;;12.22;71.65;99348.81;25482;1324;3050612;-73
2022/10/10 00:44:16;;;;;;;14.00;7.40;;;;;;;12.12;72.11;99351.43;25479;1323;3026447;-71
2022/10/10 00:46:46;;;;;;;10.90;6.50;;;;;;;11.76;73.18;99349.59;25456;1328;3050205;-69
2022/10/10 00:49:18;;;;;;;10.20;6.60;;;;;;;11.60;73.89;99352.83;25480;1327;3028369;-69
2022/10/10 00:51:48;;;;;;;9.00;5.10;;;;;;;11.57;73.78;99348.08;25472;1327;3053614;-67
2022/10/10 00:54:18;;;;;;;9.40;5.60;;;;;;;12.05;72.77;99348.95;25474;1330;3027237;-70
2022/10/10 00:56:56;;;;;;;14.20;6.60;;;;;;;12.41;71.21;99343.43;25468;1321;3027047;-68
2022/10/10 00:59:25;;;;;;;13.80;6.70;;;;;;;12.41;70.45;99349.23;25476;1317;3049246;-69
2022/10/10 01:01:54;;;;;;;14.90;6.80;;;;;;;12.19;70.84;99338.52;25433;1322;3026478;-70
2022/10/10 01:04:36;;;;;;;9.30;6.40;;;;;;;12.19;70.52;99343.07;25478;1316;3052865;-69
2022/10/10 01:07:14;;;;;;;12.00;6.70;;;;;;;11.83;71.76;99350.38;25467;1330;3048476;-67
2022/10/10 01:09:43;;;;;;;10.40;7.00;;;;;;;11.67;72.58;99346.38;25463;1327;3069233;-70
2022/10/10 01:12:33;;;;;;;14.60;7.30;;;;;;;11.53;72.92;99357.29;25467;1328;3026753;-69
2022/10/10 01:15:25;;;;;;;13.60;7.50;;;;;;;11.38;73.47;99350.21;25481;1328;3057576;-69
2022/10/10 01:18:32;;;;;;;14.30;5.50;;;;;;;11.35;73.81;99344.99;25479;1318;3051462;-69
2022/10/10 01:21:21;;;;;;;13.40;6.40;;;;;;;12.18;71.42;99344.56;25461;1324;3053360;-70
2022/10/10 01:24:01;;;;;;;12.20;5.90;;;;;;;12.42;70.04;99341.33;25466;1316;3050930;-69
2022/10/10 01:26:29;;;;;;;12.50;6.80;;;;;;;11.92;71.55;99339.42;25478;1323;3051720;-72
2022/10/10 01:29:19;;;;;;;12.50;6.10;;;;;;;11.86;71.53;99356.38;25469;1323;3027468;-71
2022/10/10 01:31:50;;;;;;;8.70;5.60;;;;;;;11.63;72.44;99352.60;25456;1336;3052997;-72
2022/10/10 01:34:48;;;;;;;11.00;5.70;;;;;;;11.41;73.09;99344.73;25476;1326;3025841;-70
2022/10/10 01:37:27;;;;;;;9.10;5.60;;;;;;;11.25;73.98;99351.06;25446;1327;3048793;-71
2022/10/10 01:40:06;;;;;;;9.00;4.00;;;;;;;11.13;74.66;99363.55;25415;1326;3068668;-70
2022/10/10 01:42:46;;;;;;;9.50;4.00;;;;;;;11.89;73.35;99358.45;25483;1327;3050332;-71
2022/10/10 01:45:15;;;;;;;7.90;3.60;;;;;;;12.04;72.71;99345.00;25468;1319;3057002;-71
2022/10/10 01:47:44;;;;;;;8.20;5.20;;;;;;;11.71;72.98;99363.10;25478;1327;3027541;-71
2022/10/10 01:50:18;;;;;;;7.60;4.30;;;;;;;11.50;74.09;99355.26;25468;1319;3048739;-70
2022/10/10 01:52:55;;;;;;;10.70;4.20;;;;;;;11.32;75.01;99369.23;25448;1329;3056375;-70
2022/10/10 01:55:53;;;;;;;9.20;4.10;;;;;;;11.04;76.06;99365.04;25466;1335;3052038;-72
2022/10/10 01:58:36;;;;;;;9.30;4.70;;;;;;;10.89;76.96;99366.50;25467;1327;3052485;-71
2022/10/10 02:01:11;;;;;;;6.50;3.30;;;;;;;10.88;77.47;99364.83;25459;1334;3051820;-71
2022/10/10 02:03:43;;;;;;;5.40;3.60;;;;;;;11.41;76.10;99373.19;25474;1325;3051744;-70
2022/10/10 02:06:52;;;;;;;8.00;4.00;;;;;;;11.68;74.98;99371.59;25431;1320;3026366;-71
2022/10/10 02:09:32;;;;;;;9.90;5.00;;;;;;;11.58;74.63;99364.52;25376;1329;3069317;-69
2022/10/10 02:12:01;;;;;;;10.40;6.00;;;;;;;11.30;75.83;99377.75;25453;1320;3051212;-70
2022/10/10 02:14:43;;;;;;;14.60;6.90;;;;;;;11.26;75.88;99371.83;25438;1334;3027634;-67
2022/10/10 02:17:13;;;;;;;13.70;6.80;;;;;;;10.98;77.32;99382.40;25465;1328;3055008;-68
2022/10/10 02:19:48;;;;;;;9.70;5.60;;;;;;;10.85;78.49;99370.27;25477;1326;3025774;-70
2022/10/10 02:22:18;;;;;;;9.70;5.90;;;;;;;11.48;76.88;99375.16;25463;1319;3026168;-66
2022/10/10 02:24:47;;;;;;;11.00;7.20;;;;;;;11.72;75.66;99379.91;25477;1327;3028022;-69
2022/10/10 02:27:21;;;;;;;13.60;7.50;;;;;;;11.72;75.19;99387.11;25475;1327;3026319;-69
2022/10/10 02:29:50;;;;;;;14.90;7.90;;;;;;;11.47;76.34;99367.67;25442;1327;3052557;-68
2022/10/10 02:32:23;;;;;;;16.90;8.20;;;;;;;11.08;77.75;99382.81;25450;1332;3026575;-71
2022/10/10 02:34:54;;;;;;;12.40;7.30;;;;;;;10.85;79.05;99382.52;25464;1332;3055250;-69
2022/10/10 02:37:23;;;;;;;13.50;5.40;;;;;;;10.78;79.78;99376.11;25443;1321;3025108;-68
2022/10/10 02:39:55;;;;;;;9.30;5.30;;;;;;;11.27;78.66;99391.97;25449;1330;3026589;-69
2022/10/10 02:42:24;;;;;;;11.90;6.50;;;;;;;11.67;76.88;99375.86;25449;1326;3052162;-69
2022/10/10 02:44:53;;;;;;;12.80;6.50;;;;;;;11.46;77.36;99374.59;25429;1329;3026406;-70
2022/10/10 02:47:22;;;;;;;13.40;7.40;;;;;;;11.35;77.77;99371.80;25449;1336;3052585;-70
2022/10/10 02:49:51;;;;;;;11.10;6.20;;;;;;;11.30;77.77;99381.60;25454;1319;3025915;-69
2022/10/10 02:52:20;;;;;;;13.70;7.20;;;;;;;11.00;79.24;99380.73;25481;1327;3056109;-70
2022/10/10 02:54:49;;;;;;;16.70;5.60;;;;;;;10.79;80.45;99381.14;25462;1327;3027229;-70
2022/10/10 02:57:18;;;;;;;14.60;6.00;;;;;;;11.45;79.14;99383.09;25484;1327;3050600;-71
2022/10/10 02:59:47;;;;;;;12.30;6.80;;;;;;;11.74;77.21;99375.01;25464;1327;3026231;-67
2022/10/10 03:02:15;;;;;;;20.80;9.00;;;;;;;11.56;77.38;99380.96;25463;1333;3069612;-65
2022/10/10 03:04:44;;;;;;;18.20;8.90;;;;;;;11.27;78.61;99387.26;25481;1325;3025622;-73
2022/10/10 03:07:13;;;;;;;16.50;8.40;;;;;;;11.11;79.45;99407.87;25472;1325;3047892;-70
2022/10/10 03:09:43;;;;;;;14.40;7.60;;;;;;;10.83;80.54;99401.74;25453;1332;3026810;-70
2022/10/10 03:12:12;;;;;;;10.40;5.00;;;;;;;10.76;81.34;99409.20;25472;1319;3026517;-68
2022/10/10 03:14:42;;;;;;;12.90;5.60;;;;;;;11.30;80.21;99404.23;25468;1327;3049090;-71
2022/10/10 03:17:11;;;;;;;14.80;7.40;;;;;;;11.59;78.38;99405.31;25454;1326;3026348;-65
2022/10/10 03:19:40;;;;;;;20.20;9.20;;;;;;;11.61;77.93;99412.70;25457;1327;3051371;-69
2022/10/10 03:22:09;;;;;;;21.70;12.40;;;;;;;11.50;78.14;99428.86;25464;1320;3026452;-69
2022/10/10 03:24:38;;;;;;;22.10;12.80;;;;;;;11.34;78.84;99409.77;25461;1326;3050663;-70
2022/10/10 03:27:07;;;;;;;20.40;11.80;;;;;;;11.15;80.03;99412.88;25458;1326;3025218;-69
2022/10/10 03:29:35;;;;;;;16.10;8.00;;;;;;;11.06;80.16;99411.04;25460;1327;3052410;-69
2022/10/10 03:32:04;;;;;;;14.70;6.40;;;;;;;11.40;80.18;99412.15;25456;1327;3026302;-70
2022/10/10 03:34:34;;;;;;;13.50;6.70;;;;;;;11.77;78.51;99415.73;25465;1327;3052416;-66
2022/10/10 03:37:04;;;;;;;14.60;7.20;;;;;;;11.84;77.70;99405.94;25467;1326;3027187;-70
2022/10/10 03:39:34;;;;;;;14.70;7.40;;;;;;;11.57;78.83;99416.66;25465;1327;3026150;-69
2022/10/10 03:42:02;;;;;;;19.90;10.00;;;;;;;11.50;79.07;99420.09;25466;1326;3027616;-69
2022/10/10 03:44:31;;;;;;;19.90;10.70;;;;;;;11.19;80.34;99421.58;25487;1327;3053009;-70
2022/10/10 03:47:00;;;;;;;11.00;5.60;;;;;;;11.06;81.31;99425.00;25455;1317;3027396;-68
2022/10/10 03:49:30;;;;;;;11.10;6.20;;;;;;;11.54;80.87;99417.91;25480;1326;3052058;-70
2022/10/10 03:52:00;;;;;;;10.90;6.50;;;;;;;12.08;78.15;99423.50;25468;1326;3027348;-70
2022/10/10 03:54:29;;;;;;;12.40;6.90;;;;;;;12.08;77.26;99425.25;25465;1327;3055377;-65
2022/10/10 03:56:58;;;;;;;11.30;6.10;;;;;;;11.79;78.52;99423.48;25483;1325;3026422;-70
2022/10/10 03:59:26;;;;;;;7.90;5.30;;;;;;;11.62;79.47;99433.04;25472;1327;3048885;-69
2022/10/10 04:01:55;;;;;;;11.60;5.80;;;;;;;11.43;79.72;99424.60;25472;1319;3026114;-70
2022/10/10 04:04:24;;;;;;;9.70;4.20;;;;;;;11.32;80.97;99424.78;25453;1330;3067254;-70
2022/10/10 04:06:54;;;;;;;12.20;5.70;;;;;;;11.71;80.32;99422.97;25464;1326;3025913;-71
2022/10/10 04:09:24;;;;;;;14.00;6.90;;;;;;;12.15;78.21;99419.32;25480;1319;3027146;-70
2022/10/10 04:11:52;;;;;;;22.40;9.70;;;;;;;12.25;77.38;99416.92;25462;1319;3025739;-70
2022/10/10 04:14:21;;;;;;;29.10;10.80;;;;;;;11.91;78.38;99422.72;25484;1316;3048866;-69
2022/10/10 04:16:51;;;;;;;20.10;10.60;;;;;;;11.59;79.74;99430.42;25469;1319;3027584;-71
2022/10/10 04:19:20;;;;;;;20.80;10.70;;;;;;;11.47;80.30;99424.66;25469;1326;3025871;-73
2022/10/10 04:21:49;;;;;;;14.80;7.00;;;;;;;11.30;81.08;99429.95;25479;1317;3050737;-65
2022/10/10 04:24:18;;;;;;;15.00;7.80;;;;;;;11.87;80.21;99428.25;25451;1326;3025084;-68
2022/10/10 04:26:47;;;;;;;14.60;7.00;;;;;;;12.39;77.49;99426.85;25462;1317;3069139;-68
2022/10/10 04:29:17;;;;;;;14.00;7.70;;;;;;;12.31;77.11;99426.34;25467;1327;3027613;-69
2022/10/10 04:31:45;;;;;;;12.90;6.60;;;;;;;12.12;77.70;99426.96;25467;1327;3027372;-69
2022/10/10 04:34:17;;;;;;;13.20;7.40;;;;;;;11.94;78.37;99434.45;25460;1329;3070627;-70
2022/10/10 04:36:47;;;;;;;17.20;9.50;;;;;;;11.55;79.69;99448.56;25465;1326;3026812;-68
2022/10/10 04:39:16;;;;;;;9.20;5.60;;;;;;;11.49;80.38;99444.41;25466;1332;3025932;-70
2022/10/10 04:41:48;;;;;;;12.60;5.80;;;;;;;11.94;79.44;99451.84;25462;1327;3068448;-70
2022/10/10 04:44:17;;;;;;;12.20;6.50;;;;;;;12.35;77.21;99450.64;25474;1327;3027232;-69
2022/10/10 04:46:46;;;;;;;14.20;7.60;;;;;;;12.30;76.91;99447.52;25453;1326;3026514;-68
2022/10/10 04:49:15;;;;;;;13.90;6.80;;;;;;;12.17;77.26;99448.33;25466;1326;3067880;-70
2022/10/10 04:51:44;;;;;;;15.10;7.40;;;;;;;12.01;77.80;99451.71;25469;1319;3026203;-70
2022/10/10 04:54:13;;;;;;;12.50;5.40;;;;;;;11.81;78.22;99459.34;25469;1319;3049772;-69
2022/10/10 04:56:42;;;;;;;8.50;4.70;;;;;;;11.36;80.26;99460.83;25457;1317;3025878;-68
2022/10/10 04:59:11;;;;;;;9.10;3.60;;;;;;;11.43;80.99;99455.27;25481;1325;3052266;-70
2022/10/10 05:01:40;;;;;;;7.30;3.50;;;;;;;12.11;78.65;99467.17;25468;1327;3027543;-70
2022/10/10 05:04:09;;;;;;;11.00;4.10;;;;;;;12.34;76.87;99464.43;25455;1318;3050272;-70
2022/10/10 05:06:38;;;;;;;7.20;3.90;;;;;;;12.31;76.53;99470.95;25481;1322;3026069;-67
2022/10/10 05:09:07;;;;;;;5.80;3.80;;;;;;;12.06;77.47;99470.00;25475;1322;3052566;-69
2022/10/10 05:11:36;;;;;;;7.90;3.60;;;;;;;11.84;78.30;99473.89;25455;1327;3026172;-72
2022/10/10 05:14:05;;;;;;;7.10;4.10;;;;;;;11.56;79.51;99477.61;25481;1324;3052950;-74
2022/10/10 05:16:36;;;;;;;5.50;2.50;;;;;;;11.48;80.29;99475.30;25465;1322;3026615;-74
2022/10/10 05:19:05;;;;;;;6.30;3.20;;;;;;;11.95;79.06;99482.29;25466;1326;3027631;-68
2022/10/10 05:21:34;;;;;;;6.70;3.40;;;;;;;12.45;76.91;99472.84;25480;1317;3027435;-72
2022/10/10 05:24:03;;;;;;;7.00;3.60;;;;;;;12.35;76.75;99473.14;25469;1326;3052101;-70
2022/10/10 05:26:32;;;;;;;6.00;3.30;;;;;;;12.20;77.04;99477.34;25453;1326;3025339;-69
2022/10/10 05:29:01;;;;;;;6.00;3.50;;;;;;;11.98;78.38;99482.27;25478;1319;3052248;-72
2022/10/10 05:31:31;;;;;;;5.60;3.00;;;;;;;11.81;78.80;99487.72;25476;1324;3026103;-71
2022/10/10 05:34:00;;;;;;;6.40;3.70;;;;;;;11.57;79.60;99479.10;25474;1317;3026922;-69
2022/10/10 05:36:28;;;;;;;4.80;2.60;;;;;;;11.56;79.88;99487.63;25465;1327;3052924;-72
2022/10/10 05:39:00;;;;;;;4.30;2.70;;;;;;;12.07;78.57;99482.85;25481;1319;3026605;-72
2022/10/10 05:41:28;;;;;;;12.00;3.30;;;;;;;12.35;76.85;99485.05;25466;1327;3027633;-72
2022/10/10 05:43:57;;;;;;;6.30;3.30;;;;;;;12.37;76.68;99484.06;25481;1327;3025831;-73
2022/10/10 05:46:26;;;;;;;12.50;4.00;;;;;;;12.29;76.81;99485.53;25474;1326;3053503;-71
2022/10/10 05:48:55;;;;;;;9.40;5.10;;;;;;;12.15;77.07;99481.85;25466;1327;3027327;-70
2022/10/10 05:51:24;;;;;;;18.10;6.00;;;;;;;11.96;78.01;99485.87;25473;1327;3052894;-70
2022/10/10 05:53:55;;;;;;;8.70;5.70;;;;;;;11.96;78.29;99481.36;25483;1325;3026995;-71
2022/10/10 05:56:24;;;;;;;11.60;7.30;;;;;;;12.25;77.57;99487.17;25463;1325;3028422;-69
2022/10/10 05:58:53;;;;;;;13.90;7.60;;;;;;;12.74;75.69;99482.23;25473;1326;3025826;-71
2022/10/10 06:01:22;;;;;;;20.90;11.40;;;;;;;12.81;74.81;99480.51;25476;1326;3053244;-72
2022/10/10 06:03:54;;;;;;;17.90;11.00;;;;;;;12.51;75.90;99491.74;25462;1326;3027027;-72
2022/10/10 06:06:26;;;;;;;18.60;13.00;;;;;;;12.26;76.44;99486.41;25472;1326;3052551;-70
2022/10/10 06:08:56;;;;;;;25.90;13.70;;;;;;;12.15;77.21;99492.94;25472;1334;3027094;-71
2022/10/10 06:11:25;;;;;;;19.10;11.40;;;;;;;12.08;77.37;99497.08;25464;1330;3027357;-72
2022/10/10 06:13:54;;;;;;;11.70;7.20;;;;;;;11.97;77.96;99499.23;25466;1326;3052236;-70
2022/10/10 06:16:24;;;;;;;16.50;8.70;;;;;;;12.66;76.53;99489.13;25475;1316;3027371;-71
2022/10/10 06:18:56;;;;;;;16.80;8.40;;;;;;;12.76;75.47;99483.16;25470;1320;3056878;-70
2022/10/10 06:21:24;;;;;;;14.10;8.80;;;;;;;12.83;74.63;99497.14;25477;1326;3027090;-72
2022/10/10 06:23:53;;;;;;;12.20;6.90;;;;;;;12.63;75.29;99483.73;25478;1319;3026254;-72
2022/10/10 06:26:22;;;;;;;13.70;6.90;;;;;;;12.30;76.12;99496.84;25467;1326;3056419;-72
2022/10/10 06:28:51;;;;;;;11.30;5.80;;;;;;;12.17;77.18;99504.56;25472;1320;3026127;-70
2022/10/10 06:31:20;;;;;;;11.00;5.60;;;;;;;11.96;77.84;99501.85;25482;1326;3048455;-68
2022/10/10 06:33:49;;;;;;;8.10;4.10;;;;;;;12.03;77.79;99501.05;25474;1309;3025669;-70
2022/10/10 06:36:18;;;;;;;7.00;3.80;;;;;;;12.55;76.60;99502.17;25456;1325;3068637;-69
2022/10/10 06:38:47;;;;;;;5.30;3.30;;;;;;;12.94;74.45;99501.64;25471;1309;3027326;-72
2022/10/10 06:41:16;;;;;;;7.30;4.20;;;;;;;12.94;74.30;99502.68;25485;1325;3047710;-71
2022/10/10 06:43:45;;;;;;;7.20;3.80;;;;;;;12.87;74.37;99502.29;25458;1323;3026289;-70
2022/10/10 06:46:13;;;;;;;7.40;4.50;;;;;;;12.57;75.34;99503.10;25480;1322;3051606;-66
2022/10/10 06:48:42;;;;;;;6.50;3.70;;;;;;;12.66;75.04;99499.34;25467;1327;3026187;-69
2022/10/10 06:51:15;;;;;;;8.00;3.40;;;;;;;12.37;75.86;99506.54;25470;1320;3050289;-70
2022/10/10 06:53:44;;;;;;;6.80;2.40;;;;;;;12.22;77.07;99504.58;25476;1326;3028415;-71
2022/10/10 06:56:19;;;;;;;7.60;2.70;;;;;;;12.92;75.03;99499.66;25473;1326;3027686;-70
2022/10/10 06:58:49;;;;;;;5.60;2.50;;;;;;;13.36;72.77;99499.22;25464;1319;3050598;-71
2022/10/10 07:01:20;;;;;;;7.30;3.00;;;;;;;13.36;72.75;99500.08;25481;1326;3027769;-71
2022/10/10 07:03:49;;;;;;;5.60;3.10;;;;;;;13.11;73.33;99495.52;25474;1317;3027307;-74
2022/10/10 07:06:18;;;;;;;7.60;3.10;;;;;;;12.94;74.26;99499.70;25458;1326;3027431;-71
2022/10/10 07:08:47;;;;;;;4.70;2.50;;;;;;;12.85;74.56;99499.80;25432;1329;3051847;-71
2022/10/10 07:11:17;;;;;;;5.60;3.20;;;;;;;12.79;74.30;99491.60;25477;1326;3026048;-70
2022/10/10 07:13:46;;;;;;;5.20;3.10;;;;;;;12.70;74.90;99498.52;25466;1336;3052842;-70
2022/10/10 07:16:14;;;;;;;4.70;2.20;;;;;;;12.66;74.91;99491.09;25475;1319;3026589;-68
2022/10/10 07:18:45;;;;;;;7.40;2.50;;;;;;;13.11;74.28;99501.49;25470;1322;3053697;-73
2022/10/10 07:21:14;;;;;;;6.10;2.80;;;;;;;13.76;71.60;99488.60;25459;1326;3027167;-69
2022/10/10 07:23:43;;;;;;;6.30;2.80;;;;;;;13.60;71.80;99491.36;25478;1323;3051355;-72
2022/10/10 07:26:13;;;;;;;4.00;2.50;;;;;;;13.38;72.24;99483.58;25479;1326;3025598;-74
2022/10/10 07:28:44;;;;;;;3.70;2.80;;;;;;;13.17;72.77;99485.38;25480;1313;3056034;-74
2022/10/10 07:31:14;;;;;;;6.20;2.80;;;;;;;13.06;73.15;99472.80;25472;1326;3026312;-70
2022/10/10 07:33:47;;;;;;;5.40;2.80;;;;;;;12.80;74.21;99467.66;25476;1324;3048512;-71
2022/10/10 07:36:16;;;;;;;4.80;2.50;;;;;;;12.81;74.23;99479.13;25481;1326;3027492;-70
2022/10/10 07:38:49;;;;;;;5.70;1.80;;;;;;;12.67;74.60;99472.39;25479;1326;3026423;-70
2022/10/10 07:41:21;;;;;;;4.00;2.20;;;;;;;13.08;74.16;99469.38;25476;1326;3050880;-71
2022/10/10 07:43:54;;;;;;;4.80;2.40;;;;;;;13.44;72.33;99466.80;25464;1327;3027580;-72
2022/10/10 07:46:23;;;;;;;4.50;2.80;;;;;;;13.50;71.88;99470.95;25464;1326;3052284;-72
2022/10/10 07:48:54;;;;;;;5.20;2.60;;;;;;;13.19;72.66;99471.39;25481;1322;3027178;-68
2022/10/10 07:51:23;;;;;;;4.50;2.70;;;;;;;13.08;73.29;99472.36;25454;1325;3027373;-70
2022/10/10 07:53:52;;;;;;;4.80;2.80;;;;;;;12.95;73.40;99472.89;25470;1330;3025636;-72
2022/10/10 07:56:21;;;;;;;5.70;3.20;;;;;;;12.77;74.21;99477.49;25475;1327;3053221;-70
2022/10/10 07:58:50;;;;;;;3.80;2.60;;;;;;;12.65;74.56;99469.51;25471;1327;3026065;-72
2022/10/10 08:01:18;;;;;;;6.40;2.50;;;;;;;12.53;75.55;99473.83;25460;1325;3052435;-74
2022/10/10 08:03:47;;;;;;;4.90;2.80;;;;;;;13.23;73.71;99473.56;25484;1317;3027132;-71
2022/10/10 08:06:16;;;;;;;3.10;2.10;;;;;;;13.79;71.55;99465.15;25468;1327;3055185;-71
2022/10/10 08:08:47;;;;;;;6.70;2.60;;;;;;;13.65;70.97;99475.86;25482;1317;3026060;-72
2022/10/10 08:11:17;;;;;;;10.40;3.60;;;;;;;13.81;70.77;99464.09;25472;1326;3029002;-71
2022/10/10 08:13:46;;;;;;;7.90;3.70;;;;;;;13.47;71.55;99464.48;25453;1327;3027724;-73
2022/10/10 08:16:19;;;;;;;7.40;3.40;;;;;;;13.21;73.01;99469.30;25471;1327;3027024;-71
2022/10/10 08:18:48;;;;;;;5.40;2.90;;;;;;;13.13;72.88;99474.80;25469;1329;3027460;-69
2022/10/10 08:21:17;;;;;;;5.90;2.70;;;;;;;12.97;73.38;99456.73;25459;1326;3051537;-71
2022/10/10 08:23:46;;;;;;;6.00;2.60;;;;;;;13.03;73.22;99463.92;25472;1319;3027002;-71
2022/10/10 08:26:15;;;;;;;4.10;1.90;;;;;;;13.00;73.56;99462.02;25468;1317;3026245;-71
2022/10/10 08:28:47;;;;;;;3.10;1.80;;;;;;;13.52;72.08;99464.09;25459;1319;3050546;-70
2022/10/10 08:31:18;;;;;;;6.80;2.10;;;;;;;14.06;69.84;99462.27;25473;1325;3026895;-68
2022/10/10 08:33:47;;;;;;;3.60;2.20;;;;;;;13.82;69.87;99467.05;25476;1322;3026959;-70
2022/10/10 08:36:18;;;;;;;4.80;2.20;;;;;;;13.64;70.42;99459.88;25469;1327;3026626;-70
2022/10/10 08:38:47;;;;;;;7.20;2.40;;;;;;;13.58;70.74;99460.14;25481;1326;3026577;-71
2022/10/10 08:41:41;;;;;;;4.00;2.20;;;;;;;13.34;71.13;99466.26;24740;1326;4334055;-72
2022/10/10 08:44:28;;;;;;;3.40;2.40;;;;;;;13.11;71.94;99456.81;25474;1317;3051630;-68
2022/10/10 08:47:01;;;;;;;7.80;2.80;;;;;;;13.01;72.64;99469.96;25463;1327;3052186;-71
2022/10/10 08:49:47;;;;;;;;;;;;;;;12.87;73.14;99471.52;25434;1329;3051404;-70
2022/10/10 08:52:38;;;;;;;7.10;3.00;;;;;;;12.82;73.63;99469.30;25492;1326;3053954;-69
2022/10/10 08:55:26;;;;;;;3.80;1.90;;;;;;;12.75;74.28;99466.17;25443;1334;3049721;-72
2022/10/10 08:57:58;;;;;;;3.60;2.20;;;;;;;13.59;71.76;99469.05;25460;1327;3069393;-72
2022/10/10 09:00:31;;;;;;;7.70;2.70;;;;;;;13.84;70.07;99480.43;25457;1319;3026523;-73
2022/10/10 09:03:00;;;;;;;5.50;2.90;;;;;;;13.68;70.35;99480.92;25442;1320;3055841;-73
2022/10/10 09:05:35;;;;;;;4.70;2.30;;;;;;;13.47;71.13;99479.78;25474;1327;3027009;-71
2022/10/10 09:08:25;;;;;;;3.10;2.20;;;;;;;13.48;71.17;99471.30;25470;1327;3050522;-71
2022/10/10 09:11:39;;;;;;;3.60;2.60;;;;;;;13.20;72.10;99475.92;25450;1319;3057948;-70
2022/10/10 09:14:23;;;;;;;5.00;2.80;;;;;;;13.05;72.87;99474.09;25325;1326;3053606;-69
2022/10/10 09:16:57;;;;;;;6.80;3.10;;;;;;;12.87;73.58;99478.39;25478;1319;3052680;-70
2022/10/10 09:19:49;;;;;;;5.70;3.80;;;;;;;12.83;73.89;99474.60;25425;1326;3051632;-71
2022/10/10 09:22:21;;;;;;;3.80;2.10;;;;;;;12.82;74.53;99476.08;25476;1320;3051576;-71
2022/10/10 09:25:13;;;;;;;3.70;2.40;;;;;;;13.32;73.05;99485.79;25461;1320;3025891;-71
2022/10/10 09:27:50;;;;;;;5.20;2.70;;;;;;;13.60;71.74;99479.39;25410;1318;3069382;-70
2022/10/10 09:30:19;;;;;;;5.10;2.70;;;;;;;13.53;71.69;99481.96;25427;1320;3050601;-72
2022/10/10 09:32:51;;;;;;;3.90;2.50;;;;;;;13.41;71.75;99478.08;25490;1319;3026890;-69
2022/10/10 09:35:24;;;;;;;5.20;2.20;;;;;;;13.21;72.53;99477.38;25438;1327;3028043;-70
2022/10/10 09:37:56;;;;;;;4.00;2.20;;;;;;;13.05;72.74;99477.10;25452;1326;3027031;-72
2022/10/10 09:40:30;;;;;;;2.10;1.70;;;;;;;12.89;73.03;99480.16;25456;1327;3026206;-70
2022/10/10 09:43:07;;;;;;;3.10;1.80;;;;;;;12.72;73.84;99479.23;25469;1319;3051352;-71
2022/10/10 09:45:37;;;;;;;2.50;1.20;;;;;;;12.70;74.22;99476.91;25456;1322;3049179;-70
2022/10/10 09:48:07;;;;;;;3.90;1.50;;;;;;;13.29;72.60;99478.78;25445;1326;3026233;-72
2022/10/10 09:50:37;;;;;;;3.00;1.60;;;;;;;13.82;70.34;99475.86;25429;1327;3027773;-70
2022/10/10 09:53:06;;;;;;;3.90;1.90;;;;;;;13.88;69.75;99479.63;25440;1328;3026469;-70
2022/10/10 09:55:36;;;;;;;3.30;1.80;;;;;;;13.60;70.55;99478.49;25457;1326;3069169;-69
2022/10/10 09:58:26;;;;;;;4.40;1.80;;;;;;;13.37;71.28;99476.97;25455;1326;3025980;-71
2022/10/10 10:01:15;;;;;;;2.40;1.80;;;;;;;13.21;71.44;99481.64;25477;1319;3058569;-71
2022/10/10 10:04:02;;;;;;;3.90;1.70;;;;;;;13.05;71.69;99479.56;25473;1326;3052356;-69
2022/10/10 10:06:32;;;;;;;7.50;3.10;;;;;;;12.87;72.78;99476.59;25472;1326;3052622;-69
2022/10/10 10:09:02;;;;;;;4.70;2.80;;;;;;;12.82;73.16;99472.39;25460;1327;3026244;-71
2022/10/10 10:11:38;;;;;;;6.70;2.90;;;;;;;12.69;74.02;99474.33;25470;1319;3026630;-70
2022/10/10 10:14:21;;;;;;;2.90;1.80;;;;;;;13.14;73.17;99465.79;25466;1323;3050529;-70
2022/10/10 10:16:52;;;;;;;5.50;2.60;;;;;;;13.66;70.65;99473.49;25461;1327;3068789;-71
2022/10/10 10:19:33;;;;;;;4.60;2.70;;;;;;;13.50;71.12;99471.62;25431;1319;3025182;-74
2022/10/10 10:22:03;;;;;;;6.90;3.00;;;;;;;13.31;71.51;99474.26;25466;1319;3057886;-73
2022/10/10 10:24:35;;;;;;;4.40;2.60;;;;;;;13.08;72.28;99476.73;25450;1323;3026229;-70
2022/10/10 10:27:16;;;;;;;4.70;2.50;;;;;;;12.97;72.46;99469.40;25470;1327;3026541;-69
2022/10/10 10:29:50;;;;;;;8.90;3.40;;;;;;;12.80;73.01;99473.05;25476;1320;3051872;-70
2022/10/10 10:32:33;;;;;;;8.90;3.70;;;;;;;12.53;74.44;99465.27;25479;1319;3025249;-72
2022/10/10 10:35:28;;;;;;;8.60;3.00;;;;;;;12.50;74.78;99478.27;25466;1316;3049993;-71
2022/10/10 10:38:19;;;;;;;;;;;;;;;13.03;73.79;99472.88;25450;1327;3068161;-70
2022/10/10 10:41:19;;;;;;;6.20;2.30;;;;;;;13.03;73.21;99478.10;25447;1326;3049570;-69
2022/10/10 10:44:03;;;;;;;2.20;1.80;;;;;;;12.80;74.20;99465.70;25445;1325;3056786;-70
2022/10/10 10:46:45;;;;;;;4.10;2.50;;;;;;;12.52;74.97;99469.56;25471;1319;3054139;-70
2022/10/10 10:49:20;;;;;;;4.40;2.40;;;;;;;12.37;76.07;99464.23;25444;1327;3052228;-68
2022/10/10 10:52:26;;;;;;;3.70;2.40;;;;;;;12.22;77.33;99469.60;25470;1328;3051685;-71
2022/10/10 10:55:21;;;;;;;4.30;1.70;;;;;;;12.18;77.19;99471.67;25483;1319;3052282;-71
2022/10/10 10:57:59;;;;;;;11.50;5.00;;;;;;;12.72;75.72;99457.94;25468;1319;3048477;-72
2022/10/10 11:00:28;;;;;;;13.30;6.50;;;;;;;12.90;75.37;99470.79;25438;1326;3068098;-72
2022/10/10 11:03:00;;;;;;;12.40;6.40;;;;;;;12.65;76.61;99462.34;25454;1326;3027164;-72
2022/10/10 11:05:39;;;;;;;11.90;6.10;;;;;;;12.56;77.21;99464.70;25467;1313;3048749;-72
2022/10/10 11:08:50;;;;;;;8.20;4.30;;;;;;;12.19;79.22;99455.79;25429;1326;3067724;-65
2022/10/10 11:11:24;;;;;;;3.50;2.10;;;;;;;11.84;81.91;99462.60;25472;1326;3049068;-74
2022/10/10 11:14:06;;;;;;;6.60;3.20;;;;;;;12.32;80.91;99463.14;25474;1319;3027071;-69
2022/10/10 11:16:39;;;;;;;5.90;3.10;;;;;;;12.64;79.37;99456.38;25471;1327;3052943;-68
2022/10/10 11:19:10;;;;;;;3.30;2.20;;;;;;;12.25;80.49;99456.60;25477;1326;3027230;-68
2022/10/10 11:21:52;;;;;;;1.80;1.20;;;;;;;11.93;81.28;99468.70;25458;1325;3026947;-73
2022/10/10 11:24:26;;;;;;;4.00;1.90;;;;;;;11.61;82.44;99454.64;25459;1320;3051632;-70
2022/10/10 11:26:56;;;;;;;1.90;0.90;;;;;;;11.52;83.11;99449.45;25467;1327;3048739;-72
2022/10/10 11:29:36;;;;;;;1.90;1.10;;;;;;;12.02;81.94;99443.59;25453;1326;3027415;-73
2022/10/10 11:32:11;;;;;;;3.20;1.80;;;;;;;12.06;80.93;99456.97;25438;1327;3050005;-78
2022/10/10 11:35:04;;;;;;;2.30;1.30;;;;;;;11.78;81.79;99453.42;25430;1329;3056782;-72
2022/10/10 11:37:35;;;;;;;2.10;1.30;;;;;;;11.53;82.92;99451.31;25463;1320;3053322;-73
2022/10/10 11:40:05;;;;;;;3.60;1.60;;;;;;;11.40;83.73;99461.62;25470;1319;3026395;-74
2022/10/10 11:42:38;;;;;;;4.80;1.20;;;;;;;11.21;84.65;99459.81;25456;1326;3026292;-73